DLH413 KEWR-EDDM
Flight info
| Callsign | DLH413 |
|---|---|
| Flight time | 2h 42m |
| Altitude | 39000 |
| Route | MERIT DCT HFD DCT PUT DCT TUSKY DCT ALLRY/M084F400 DCT 51N050W 52N040W 53N030W 54N020W DCT DOGAL DCT BEXET/N0489F410 DCT TIPUR DCT ENJEX DCT ADHAV DCT AGCAT DCT AXNEF DCT ZIPWE DCT OZZIL DCT SAWPE Q63 CPT UL9 BIG L607 KONAN DCT KOK DCT DENOX DCT REMBA UL607 SPI DCT MOVUM T109 HAREM/N0493F350 T104 ELMOX/N0486F270 T104 ROKIL ROKIL1B |
| Aircraft | A359/H-SDE2E3GHIJ3J4J5LM1ORWXY/LB1D1 |
Departure
| Time | 2026-05-05 18:49 |
|---|---|
| Airport | Newark Liberty International Airport (KEWR) |
Arrival
| Time | 2026-05-05 21:31 |
|---|---|
| Airport | Munich Airport (EDDM) |
| Time | Latitude | Longitude | Altitude | Speed | Heading |
|---|---|---|---|---|---|
| 2026-05-05 17:56 | 40.69146 | -74.17372 | 28 ft | 0 kts | 321° |
| 2026-05-05 18:33 | 40.69134 | -74.17359 | 28 ft | 4 kts | 315° |
| 2026-05-05 18:34 | 40.69117 | -74.17344 | 27 ft | 1 kts | 351° |
| 2026-05-05 18:44 | 40.69134 | -74.17339 | 27 ft | 8 kts | 16° |
| 2026-05-05 18:44 | 40.69186 | -74.17305 | 28 ft | 9 kts | 32° |
| 2026-05-05 18:45 | 40.69232 | -74.17247 | 28 ft | 10 kts | 58° |
| 2026-05-05 18:45 | 40.69237 | -74.17168 | 28 ft | 9 kts | 102° |
| 2026-05-05 18:45 | 40.69230 | -74.17082 | 28 ft | 12 kts | 81° |
| 2026-05-05 18:45 | 40.69300 | -74.16989 | 28 ft | 19 kts | 28° |
| 2026-05-05 18:46 | 40.69419 | -74.16909 | 29 ft | 19 kts | 26° |
| 2026-05-05 18:46 | 40.69539 | -74.16830 | 27 ft | 20 kts | 26° |
| 2026-05-05 18:46 | 40.69660 | -74.16752 | 28 ft | 20 kts | 24° |
| 2026-05-05 18:46 | 40.69788 | -74.16674 | 27 ft | 21 kts | 26° |
| 2026-05-05 18:47 | 40.69919 | -74.16592 | 27 ft | 20 kts | 25° |
| 2026-05-05 18:47 | 40.69952 | -74.16561 | 27 ft | 10 kts | 44° |
| 2026-05-05 18:47 | 40.69963 | -74.16440 | 27 ft | 14 kts | 124° |
| 2026-05-05 18:47 | 40.69923 | -74.16432 | 28 ft | 4 kts | 202° |
| 2026-05-05 18:48 | 40.69832 | -74.16484 | 26 ft | 39 kts | 205° |
| 2026-05-05 18:48 | 40.69413 | -74.16752 | 29 ft | 93 kts | 206° |
| 2026-05-05 18:48 | 40.68671 | -74.17208 | 29 ft | 141 kts | 206° |
| 2026-05-05 18:48 | 40.67684 | -74.17823 | 260 ft | 160 kts | 202° |
| 2026-05-05 18:49 | 40.66656 | -74.18412 | 687 ft | 162 kts | 201° |
| 2026-05-05 18:49 | 40.65575 | -74.18424 | 1169 ft | 158 kts | 168° |
| 2026-05-05 18:49 | 40.64461 | -74.18069 | 1333 ft | 168 kts | 168° |
| 2026-05-05 18:49 | 40.63275 | -74.17723 | 1478 ft | 182 kts | 169° |
| 2026-05-05 18:50 | 40.62014 | -74.17314 | 1677 ft | 196 kts | 166° |
| 2026-05-05 18:50 | 40.60672 | -74.16708 | 1854 ft | 213 kts | 160° |
| 2026-05-05 18:50 | 40.59282 | -74.15815 | 2069 ft | 231 kts | 151° |
| 2026-05-05 18:50 | 40.57906 | -74.14586 | 2338 ft | 248 kts | 144° |
| 2026-05-05 18:51 | 40.56609 | -74.13019 | 2735 ft | 258 kts | 135° |
| 2026-05-05 18:51 | 40.55486 | -74.11156 | 3266 ft | 262 kts | 126° |
| 2026-05-05 18:51 | 40.54588 | -74.09046 | 3803 ft | 266 kts | 117° |
| 2026-05-05 18:51 | 40.53958 | -74.06745 | 4304 ft | 271 kts | 107° |
| 2026-05-05 18:52 | 40.53623 | -74.04288 | 4802 ft | 275 kts | 97° |
| 2026-05-05 18:52 | 40.53607 | -74.01756 | 5259 ft | 279 kts | 87° |
| 2026-05-05 18:52 | 40.53930 | -73.99216 | 5723 ft | 283 kts | 77° |
| 2026-05-05 18:52 | 40.54590 | -73.96765 | 6188 ft | 287 kts | 67° |
| 2026-05-05 18:53 | 40.55581 | -73.94474 | 6633 ft | 290 kts | 56° |
| 2026-05-05 18:53 | 40.56878 | -73.92432 | 7087 ft | 293 kts | 45° |
| 2026-05-05 18:53 | 40.58453 | -73.90709 | 7531 ft | 296 kts | 34° |
| 2026-05-05 18:53 | 40.60253 | -73.89380 | 7992 ft | 298 kts | 24° |
| 2026-05-05 18:54 | 40.62210 | -73.88457 | 8438 ft | 300 kts | 17° |
| 2026-05-05 18:54 | 40.64198 | -73.87695 | 8887 ft | 302 kts | 15° |
| 2026-05-05 18:54 | 40.66222 | -73.86933 | 9353 ft | 304 kts | 16° |
| 2026-05-05 18:54 | 40.68288 | -73.86150 | 9823 ft | 306 kts | 16° |
| 2026-05-05 18:55 | 40.70320 | -73.85373 | 10202 ft | 311 kts | 16° |
| 2026-05-05 18:55 | 40.72436 | -73.84560 | 10396 ft | 322 kts | 16° |
| 2026-05-05 18:55 | 40.74631 | -73.83715 | 10586 ft | 334 kts | 16° |
| 2026-05-05 18:55 | 40.76900 | -73.82841 | 10762 ft | 345 kts | 16° |
| 2026-05-05 18:56 | 40.79238 | -73.81938 | 10931 ft | 356 kts | 16° |
| 2026-05-05 18:56 | 40.81647 | -73.81006 | 11141 ft | 366 kts | 16° |
| 2026-05-05 18:56 | 40.84123 | -73.80047 | 11329 ft | 375 kts | 16° |
| 2026-05-05 18:56 | 40.86649 | -73.79069 | 11517 ft | 384 kts | 16° |
| 2026-05-05 18:57 | 40.89255 | -73.78059 | 11683 ft | 393 kts | 16° |
| 2026-05-05 18:57 | 40.91874 | -73.76886 | 11849 ft | 402 kts | 23° |
| 2026-05-05 18:57 | 40.94308 | -73.75026 | 12034 ft | 407 kts | 38° |
| 2026-05-05 18:57 | 40.96454 | -73.72563 | 12354 ft | 410 kts | 44° |
| 2026-05-05 18:58 | 40.98477 | -73.69887 | 12685 ft | 413 kts | 47° |
| 2026-05-05 18:58 | 41.00442 | -73.67108 | 13010 ft | 415 kts | 48° |
| 2026-05-05 18:58 | 41.02397 | -73.64282 | 13347 ft | 417 kts | 48° |
| 2026-05-05 18:58 | 41.04351 | -73.61461 | 13673 ft | 419 kts | 48° |
| 2026-05-05 18:59 | 41.06313 | -73.58655 | 13979 ft | 421 kts | 47° |
| 2026-05-05 18:59 | 41.08316 | -73.55819 | 14299 ft | 422 kts | 47° |
| 2026-05-05 18:59 | 41.10335 | -73.52980 | 14603 ft | 424 kts | 47° |
| 2026-05-05 18:59 | 41.12332 | -73.50182 | 14911 ft | 426 kts | 47° |
| 2026-05-05 19:00 | 41.14360 | -73.47345 | 15219 ft | 428 kts | 47° |
| 2026-05-05 19:00 | 41.16410 | -73.44475 | 15517 ft | 430 kts | 47° |
| 2026-05-05 19:00 | 41.18470 | -73.41587 | 15811 ft | 432 kts | 47° |
| 2026-05-05 19:00 | 41.20540 | -73.38682 | 16114 ft | 434 kts | 47° |
| 2026-05-05 19:01 | 41.22617 | -73.35762 | 16406 ft | 436 kts | 47° |
| 2026-05-05 19:01 | 41.24701 | -73.32829 | 16688 ft | 437 kts | 47° |
| 2026-05-05 19:01 | 41.26794 | -73.29879 | 16954 ft | 439 kts | 47° |
| 2026-05-05 19:01 | 41.28891 | -73.26922 | 17228 ft | 441 kts | 47° |
| 2026-05-05 19:02 | 41.30997 | -73.23947 | 17515 ft | 443 kts | 47° |
| 2026-05-05 19:02 | 41.33120 | -73.20946 | 17788 ft | 444 kts | 47° |
| 2026-05-05 19:02 | 41.35239 | -73.17950 | 18039 ft | 446 kts | 47° |
| 2026-05-05 19:02 | 41.37320 | -73.14867 | 18277 ft | 447 kts | 52° |
| 2026-05-05 19:03 | 41.39121 | -73.11488 | 18547 ft | 448 kts | 57° |
| 2026-05-05 19:03 | 41.40802 | -73.07976 | 18796 ft | 450 kts | 59° |
| 2026-05-05 19:03 | 41.42419 | -73.04408 | 19038 ft | 451 kts | 60° |
| 2026-05-05 19:03 | 41.43992 | -73.00831 | 19289 ft | 453 kts | 61° |
| 2026-05-05 19:04 | 41.45573 | -72.97198 | 19530 ft | 454 kts | 61° |
| 2026-05-05 19:04 | 41.47161 | -72.93545 | 19745 ft | 456 kts | 61° |
| 2026-05-05 19:04 | 41.48760 | -72.89878 | 19985 ft | 457 kts | 60° |
| 2026-05-05 19:04 | 41.50364 | -72.86209 | 20210 ft | 459 kts | 60° |
| 2026-05-05 19:05 | 41.51980 | -72.82520 | 20432 ft | 461 kts | 60° |
| 2026-05-05 19:05 | 41.53601 | -72.78824 | 20670 ft | 462 kts | 60° |
| 2026-05-05 19:05 | 41.55227 | -72.75114 | 20883 ft | 464 kts | 60° |
| 2026-05-05 19:05 | 41.56855 | -72.71397 | 21105 ft | 465 kts | 60° |
| 2026-05-05 19:06 | 41.58490 | -72.67659 | 21315 ft | 466 kts | 60° |
| 2026-05-05 19:06 | 41.60127 | -72.63910 | 21517 ft | 468 kts | 60° |
| 2026-05-05 19:06 | 41.61766 | -72.60151 | 21725 ft | 469 kts | 60° |
| 2026-05-05 19:06 | 41.63411 | -72.56374 | 21927 ft | 471 kts | 60° |
| 2026-05-05 19:07 | 41.65068 | -72.52581 | 22139 ft | 472 kts | 60° |
| 2026-05-05 19:07 | 41.66755 | -72.48806 | 22331 ft | 474 kts | 60° |
| 2026-05-05 19:07 | 41.68467 | -72.45024 | 22517 ft | 475 kts | 59° |
| 2026-05-05 19:07 | 41.70163 | -72.41289 | 22709 ft | 477 kts | 59° |
| 2026-05-05 19:08 | 41.71911 | -72.37434 | 22891 ft | 478 kts | 59° |
| 2026-05-05 19:08 | 41.73610 | -72.33673 | 23084 ft | 479 kts | 60° |
| 2026-05-05 19:08 | 41.75331 | -72.29851 | 23254 ft | 480 kts | 60° |
| 2026-05-05 19:08 | 41.77055 | -72.26009 | 23466 ft | 482 kts | 60° |
| 2026-05-05 19:09 | 41.78781 | -72.22155 | 23637 ft | 483 kts | 60° |
| 2026-05-05 19:09 | 41.80507 | -72.18294 | 23816 ft | 484 kts | 60° |
| 2026-05-05 19:09 | 41.82241 | -72.14407 | 23983 ft | 485 kts | 60° |
| 2026-05-05 19:09 | 41.83974 | -72.10521 | 24151 ft | 487 kts | 60° |
| 2026-05-05 19:10 | 41.85713 | -72.06615 | 24308 ft | 488 kts | 60° |
| 2026-05-05 19:10 | 41.87454 | -72.02700 | 24480 ft | 489 kts | 60° |
| 2026-05-05 19:10 | 41.89199 | -71.98771 | 24638 ft | 490 kts | 60° |
| 2026-05-05 19:10 | 41.90944 | -71.94837 | 24807 ft | 491 kts | 60° |
| 2026-05-05 19:11 | 41.92692 | -71.90891 | 24963 ft | 493 kts | 60° |
| 2026-05-05 19:11 | 41.94451 | -71.86914 | 25137 ft | 494 kts | 60° |
| 2026-05-05 19:11 | 41.96201 | -71.82947 | 25285 ft | 495 kts | 60° |
| 2026-05-05 19:11 | 41.97833 | -71.78865 | 25437 ft | 495 kts | 64° |
| 2026-05-05 19:12 | 41.99327 | -71.74691 | 25590 ft | 496 kts | 66° |
| 2026-05-05 19:12 | 42.00775 | -71.70472 | 25742 ft | 497 kts | 66° |
| 2026-05-05 19:12 | 42.02204 | -71.66290 | 25889 ft | 499 kts | 66° |
| 2026-05-05 19:12 | 42.03671 | -71.62051 | 26043 ft | 500 kts | 66° |
| 2026-05-05 19:13 | 42.05156 | -71.57820 | 26209 ft | 501 kts | 65° |
| 2026-05-05 19:13 | 42.06660 | -71.53587 | 26362 ft | 502 kts | 65° |
| 2026-05-05 19:13 | 42.08170 | -71.49358 | 26511 ft | 503 kts | 65° |
| 2026-05-05 19:13 | 42.09698 | -71.45092 | 26655 ft | 504 kts | 65° |
| 2026-05-05 19:14 | 42.11222 | -71.40832 | 26803 ft | 505 kts | 65° |
| 2026-05-05 19:14 | 42.12751 | -71.36555 | 26941 ft | 507 kts | 65° |
| 2026-05-05 19:14 | 42.14275 | -71.32278 | 27081 ft | 508 kts | 65° |
| 2026-05-05 19:14 | 42.15805 | -71.27978 | 27241 ft | 509 kts | 65° |
| 2026-05-05 19:15 | 42.17331 | -71.23679 | 27363 ft | 510 kts | 65° |
| 2026-05-05 19:15 | 42.18860 | -71.19366 | 27505 ft | 511 kts | 65° |
| 2026-05-05 19:15 | 42.20392 | -71.15038 | 27653 ft | 512 kts | 65° |
| 2026-05-05 19:15 | 42.21924 | -71.10699 | 27766 ft | 513 kts | 65° |
| 2026-05-05 19:16 | 42.23461 | -71.06343 | 27896 ft | 514 kts | 65° |
| 2026-05-05 19:16 | 42.24999 | -71.01976 | 28025 ft | 515 kts | 65° |
| 2026-05-05 19:16 | 42.26534 | -70.97611 | 28130 ft | 516 kts | 65° |
| 2026-05-05 19:16 | 42.28073 | -70.93227 | 28254 ft | 517 kts | 65° |
| 2026-05-05 19:17 | 42.29610 | -70.88843 | 28370 ft | 517 kts | 65° |
| 2026-05-05 19:17 | 42.31152 | -70.84439 | 28473 ft | 518 kts | 65° |
| 2026-05-05 19:17 | 42.32692 | -70.80033 | 28587 ft | 519 kts | 65° |
| 2026-05-05 19:17 | 42.34216 | -70.75665 | 28679 ft | 520 kts | 65° |
| 2026-05-05 19:18 | 42.35753 | -70.71252 | 28813 ft | 520 kts | 66° |
| 2026-05-05 19:18 | 42.37293 | -70.66824 | 28978 ft | 519 kts | 66° |
| 2026-05-05 19:18 | 42.38827 | -70.62407 | 29109 ft | 519 kts | 66° |
| 2026-05-05 19:18 | 42.40362 | -70.57980 | 29256 ft | 519 kts | 66° |
| 2026-05-05 19:19 | 42.41893 | -70.53557 | 29400 ft | 519 kts | 66° |
| 2026-05-05 19:19 | 42.43421 | -70.49135 | 29535 ft | 518 kts | 66° |
| 2026-05-05 19:19 | 42.44946 | -70.44713 | 29683 ft | 518 kts | 66° |
| 2026-05-05 19:19 | 42.46468 | -70.40296 | 29816 ft | 518 kts | 66° |
| 2026-05-05 19:20 | 42.47989 | -70.35875 | 29968 ft | 517 kts | 66° |
| 2026-05-05 19:20 | 42.49509 | -70.31447 | 30119 ft | 517 kts | 66° |
| 2026-05-05 19:20 | 42.51026 | -70.27023 | 30242 ft | 517 kts | 66° |
| 2026-05-05 19:20 | 42.52520 | -70.22656 | 30399 ft | 516 kts | 66° |
| 2026-05-05 19:21 | 42.54029 | -70.18240 | 30543 ft | 516 kts | 66° |
| 2026-05-05 19:21 | 42.55536 | -70.13823 | 30685 ft | 516 kts | 66° |
| 2026-05-05 19:21 | 42.57037 | -70.09416 | 30832 ft | 516 kts | 66° |
| 2026-05-05 19:21 | 42.58541 | -70.04995 | 30976 ft | 515 kts | 66° |
| 2026-05-05 19:22 | 42.60044 | -70.00568 | 31123 ft | 515 kts | 66° |
| 2026-05-05 19:22 | 42.61542 | -69.96148 | 31265 ft | 515 kts | 66° |
| 2026-05-05 19:22 | 42.63035 | -69.91736 | 31406 ft | 514 kts | 66° |
| 2026-05-05 19:22 | 42.64527 | -69.87321 | 31544 ft | 514 kts | 66° |
| 2026-05-05 19:23 | 42.66019 | -69.82898 | 31667 ft | 514 kts | 66° |
| 2026-05-05 19:23 | 42.67504 | -69.78488 | 31816 ft | 514 kts | 66° |
| 2026-05-05 19:23 | 42.68989 | -69.74073 | 31935 ft | 513 kts | 66° |
| 2026-05-05 19:23 | 42.70469 | -69.69664 | 32070 ft | 513 kts | 66° |
| 2026-05-05 19:24 | 42.71950 | -69.65244 | 32192 ft | 513 kts | 66° |
| 2026-05-05 19:24 | 42.73425 | -69.60836 | 32323 ft | 512 kts | 66° |
| 2026-05-05 19:24 | 42.74898 | -69.56429 | 32449 ft | 512 kts | 66° |
| 2026-05-05 19:24 | 42.76374 | -69.52004 | 32578 ft | 512 kts | 66° |
| 2026-05-05 19:25 | 42.77842 | -69.47594 | 32690 ft | 512 kts | 66° |
| 2026-05-05 19:25 | 42.79307 | -69.43188 | 32822 ft | 511 kts | 66° |
| 2026-05-05 19:25 | 42.80752 | -69.38834 | 32942 ft | 511 kts | 66° |
| 2026-05-05 19:25 | 42.82216 | -69.34417 | 33067 ft | 511 kts | 66° |
| 2026-05-05 19:26 | 42.83673 | -69.30013 | 33200 ft | 511 kts | 66° |
| 2026-05-05 19:26 | 42.85129 | -69.25604 | 33321 ft | 510 kts | 66° |
| 2026-05-05 19:26 | 42.86582 | -69.21197 | 33441 ft | 510 kts | 67° |
| 2026-05-05 19:26 | 42.87975 | -69.16965 | 33561 ft | 510 kts | 67° |
| 2026-05-05 19:27 | 42.90727 | -69.08586 | 33760 ft | 509 kts | 67° |
| 2026-05-05 19:27 | 42.93099 | -69.01344 | 33966 ft | 509 kts | 67° |
| 2026-05-05 19:28 | 42.95981 | -68.92520 | 34170 ft | 509 kts | 67° |
| 2026-05-05 19:28 | 42.97418 | -68.88107 | 34273 ft | 508 kts | 67° |
| 2026-05-05 19:28 | 42.98852 | -68.83697 | 34376 ft | 508 kts | 67° |
| 2026-05-05 19:29 | 43.00284 | -68.79285 | 34478 ft | 508 kts | 67° |
| 2026-05-05 19:29 | 43.01716 | -68.74868 | 34586 ft | 508 kts | 67° |
| 2026-05-05 19:29 | 43.04571 | -68.66038 | 34761 ft | 507 kts | 67° |
| 2026-05-05 19:30 | 43.07420 | -68.57197 | 34894 ft | 509 kts | 67° |
| 2026-05-05 19:30 | 43.10278 | -68.48295 | 34896 ft | 513 kts | 67° |
| 2026-05-05 19:31 | 43.13144 | -68.39343 | 34897 ft | 513 kts | 67° |
| 2026-05-05 19:31 | 43.15981 | -68.30450 | 34897 ft | 513 kts | 67° |
| 2026-05-05 19:32 | 43.18836 | -68.21471 | 34897 ft | 513 kts | 67° |
| 2026-05-05 19:32 | 43.21678 | -68.12503 | 34897 ft | 513 kts | 68° |
| 2026-05-05 19:33 | 43.24515 | -68.03519 | 34897 ft | 513 kts | 68° |
| 2026-05-05 19:33 | 43.27346 | -67.94524 | 34897 ft | 513 kts | 68° |
| 2026-05-05 19:34 | 43.30168 | -67.85526 | 34897 ft | 513 kts | 68° |
| 2026-05-05 19:35 | 43.34389 | -67.72010 | 34897 ft | 513 kts | 68° |
| 2026-05-05 19:35 | 43.37192 | -67.62996 | 34897 ft | 513 kts | 68° |
| 2026-05-05 19:36 | 43.39970 | -67.54032 | 34897 ft | 513 kts | 68° |
| 2026-05-05 19:36 | 43.45440 | -67.36290 | 34897 ft | 513 kts | 68° |
| 2026-05-05 19:37 | 43.56820 | -67.00159 | 34897 ft | 514 kts | 58° |
| 2026-05-05 19:37 | 43.74735 | -66.69326 | 34897 ft | 515 kts | 51° |
| 2026-05-05 19:38 | 43.92473 | -66.39154 | 34897 ft | 515 kts | 51° |
| 2026-05-05 19:38 | 44.10485 | -66.08187 | 34897 ft | 515 kts | 52° |
| 2026-05-05 19:39 | 44.28348 | -65.77147 | 34897 ft | 515 kts | 52° |
| 2026-05-05 19:39 | 44.46181 | -65.45819 | 34897 ft | 515 kts | 52° |
| 2026-05-05 19:40 | 44.63948 | -65.14263 | 34897 ft | 515 kts | 52° |
| 2026-05-05 19:40 | 44.81605 | -64.82555 | 34897 ft | 515 kts | 53° |
| 2026-05-05 19:41 | 44.99183 | -64.50636 | 34898 ft | 515 kts | 53° |
| 2026-05-05 19:41 | 45.16675 | -64.18515 | 34897 ft | 515 kts | 53° |
| 2026-05-05 19:42 | 45.34071 | -63.86206 | 34897 ft | 515 kts | 53° |
| 2026-05-05 19:42 | 45.51381 | -63.53689 | 34896 ft | 515 kts | 53° |
| 2026-05-05 19:43 | 45.68581 | -63.21003 | 34897 ft | 515 kts | 54° |
| 2026-05-05 19:43 | 45.85727 | -62.88040 | 34897 ft | 515 kts | 54° |
| 2026-05-05 19:44 | 46.02757 | -62.54914 | 34897 ft | 515 kts | 54° |
| 2026-05-05 19:44 | 46.19662 | -62.21641 | 34897 ft | 515 kts | 54° |
| 2026-05-05 19:45 | 46.36492 | -61.88117 | 34897 ft | 515 kts | 55° |
| 2026-05-05 19:45 | 46.53217 | -61.54402 | 34897 ft | 515 kts | 55° |
| 2026-05-05 19:46 | 46.69752 | -61.20663 | 34897 ft | 515 kts | 55° |
| 2026-05-05 19:46 | 46.86245 | -60.86598 | 34897 ft | 515 kts | 56° |
| 2026-05-05 19:47 | 47.02688 | -60.52216 | 34897 ft | 515 kts | 56° |
| 2026-05-05 19:47 | 47.18998 | -60.17682 | 34897 ft | 515 kts | 56° |
| 2026-05-05 19:48 | 47.35213 | -59.82918 | 34897 ft | 515 kts | 56° |
| 2026-05-05 19:48 | 47.51311 | -59.47964 | 34897 ft | 515 kts | 57° |
| 2026-05-05 19:49 | 47.67315 | -59.12767 | 34896 ft | 515 kts | 57° |
| 2026-05-05 19:49 | 47.83122 | -58.77553 | 34897 ft | 514 kts | 57° |
| 2026-05-05 19:50 | 47.98914 | -58.41914 | 34897 ft | 514 kts | 57° |
| 2026-05-05 19:50 | 48.14349 | -58.06621 | 34897 ft | 514 kts | 58° |
| 2026-05-05 19:51 | 48.29924 | -57.70538 | 34897 ft | 514 kts | 58° |
| 2026-05-05 19:51 | 48.45364 | -57.34285 | 34897 ft | 514 kts | 58° |
| 2026-05-05 19:52 | 48.60692 | -56.97804 | 34897 ft | 514 kts | 58° |
| 2026-05-05 19:52 | 48.75867 | -56.61194 | 34897 ft | 514 kts | 59° |
| 2026-05-05 19:53 | 48.90987 | -56.24210 | 34897 ft | 514 kts | 59° |
| 2026-05-05 19:53 | 49.05833 | -55.87392 | 34897 ft | 514 kts | 59° |
| 2026-05-05 19:54 | 49.20694 | -55.50016 | 34897 ft | 514 kts | 59° |
| 2026-05-05 19:54 | 49.35442 | -55.12392 | 34897 ft | 514 kts | 60° |
| 2026-05-05 19:55 | 49.50047 | -54.74599 | 34897 ft | 514 kts | 60° |
| 2026-05-05 19:55 | 49.64519 | -54.36603 | 34897 ft | 514 kts | 60° |
| 2026-05-05 19:56 | 49.78863 | -53.98389 | 34897 ft | 514 kts | 61° |
| 2026-05-05 19:56 | 49.93073 | -53.59971 | 34897 ft | 514 kts | 61° |
| 2026-05-05 19:57 | 50.07176 | -53.21269 | 34897 ft | 514 kts | 62° |
| 2026-05-05 19:57 | 50.21176 | -52.82267 | 34897 ft | 514 kts | 62° |
| 2026-05-05 19:58 | 50.34911 | -52.43415 | 34897 ft | 514 kts | 62° |
| 2026-05-05 19:58 | 50.48614 | -52.04057 | 34897 ft | 514 kts | 62° |
| 2026-05-05 19:59 | 50.59697 | -51.62645 | 34897 ft | 513 kts | 69° |
| 2026-05-05 19:59 | 50.70313 | -51.20951 | 34897 ft | 513 kts | 69° |
| 2026-05-05 20:00 | 50.80782 | -50.79068 | 34897 ft | 513 kts | 70° |
| 2026-05-05 20:00 | 50.91107 | -50.36973 | 34897 ft | 513 kts | 70° |
| 2026-05-05 20:01 | 51.00740 | -49.94808 | 34897 ft | 511 kts | 77° |
| 2026-05-05 20:01 | 51.07060 | -49.50769 | 34897 ft | 511 kts | 78° |
| 2026-05-05 20:02 | 51.13199 | -49.06551 | 34897 ft | 511 kts | 79° |
| 2026-05-05 20:02 | 51.19165 | -48.62253 | 34897 ft | 511 kts | 79° |
| 2026-05-05 20:03 | 51.24962 | -48.17855 | 34897 ft | 511 kts | 79° |
| 2026-05-05 20:03 | 51.30592 | -47.73333 | 34897 ft | 511 kts | 80° |
| 2026-05-05 20:04 | 51.36059 | -47.28652 | 34897 ft | 511 kts | 80° |
| 2026-05-05 20:04 | 51.41344 | -46.83966 | 34897 ft | 511 kts | 81° |
| 2026-05-05 20:05 | 51.46456 | -46.39199 | 34897 ft | 511 kts | 81° |
| 2026-05-05 20:05 | 51.51405 | -45.94263 | 34897 ft | 511 kts | 81° |
| 2026-05-05 20:06 | 51.56178 | -45.49268 | 34897 ft | 511 kts | 82° |
| 2026-05-05 20:06 | 51.60772 | -45.04251 | 34897 ft | 511 kts | 82° |
| 2026-05-05 20:07 | 51.65201 | -44.59058 | 34897 ft | 511 kts | 82° |
| 2026-05-05 20:07 | 51.69453 | -44.13819 | 34897 ft | 510 kts | 83° |
| 2026-05-05 20:08 | 51.73506 | -43.68784 | 34897 ft | 510 kts | 83° |
| 2026-05-05 20:08 | 51.77406 | -43.23422 | 34897 ft | 510 kts | 83° |
| 2026-05-05 20:09 | 51.81132 | -42.77991 | 34897 ft | 510 kts | 84° |
| 2026-05-05 20:09 | 51.84685 | -42.32451 | 34897 ft | 510 kts | 84° |
| 2026-05-05 20:10 | 51.88061 | -41.86847 | 34897 ft | 510 kts | 84° |
| 2026-05-05 20:10 | 51.91261 | -41.41174 | 34897 ft | 510 kts | 85° |
| 2026-05-05 20:11 | 51.94286 | -40.95407 | 34897 ft | 510 kts | 85° |
| 2026-05-05 20:11 | 51.97126 | -40.49694 | 34897 ft | 510 kts | 85° |
| 2026-05-05 20:12 | 51.99798 | -40.03822 | 34896 ft | 510 kts | 85° |
| 2026-05-05 20:12 | 52.05911 | -39.58817 | 34897 ft | 511 kts | 78° |
| 2026-05-05 20:13 | 52.12195 | -39.13719 | 34897 ft | 511 kts | 78° |
| 2026-05-05 20:13 | 52.18308 | -38.68468 | 34897 ft | 511 kts | 79° |
| 2026-05-05 20:14 | 52.24204 | -38.23431 | 34897 ft | 511 kts | 79° |
| 2026-05-05 20:14 | 52.29969 | -37.77946 | 34897 ft | 511 kts | 79° |
| 2026-05-05 20:15 | 52.35548 | -37.32438 | 34897 ft | 511 kts | 80° |
| 2026-05-05 20:15 | 52.40965 | -36.86705 | 34897 ft | 511 kts | 80° |
| 2026-05-05 20:16 | 52.46195 | -36.40946 | 34897 ft | 511 kts | 81° |
| 2026-05-05 20:16 | 52.51221 | -35.95330 | 34897 ft | 511 kts | 81° |
| 2026-05-05 20:17 | 52.56101 | -35.49323 | 34897 ft | 511 kts | 81° |
| 2026-05-05 20:17 | 52.60799 | -35.03254 | 34897 ft | 511 kts | 82° |
| 2026-05-05 20:18 | 52.64596 | -34.64590 | 34897 ft | 511 kts | 82° |
| 2026-05-05 20:18 | 52.68961 | -34.18372 | 34897 ft | 510 kts | 82° |
| 2026-05-05 20:19 | 52.73122 | -33.72340 | 34897 ft | 510 kts | 83° |
| 2026-05-05 20:19 | 52.77130 | -33.25931 | 34897 ft | 510 kts | 83° |
| 2026-05-05 20:20 | 52.80954 | -32.79453 | 34897 ft | 510 kts | 83° |
| 2026-05-05 20:20 | 52.84595 | -32.32911 | 34897 ft | 510 kts | 84° |
| 2026-05-05 20:21 | 52.88060 | -31.86222 | 34897 ft | 510 kts | 84° |
| 2026-05-05 20:21 | 52.91337 | -31.39518 | 34897 ft | 510 kts | 85° |
| 2026-05-05 20:22 | 52.94412 | -30.93023 | 34897 ft | 510 kts | 85° |
| 2026-05-05 20:22 | 52.97320 | -30.46245 | 34897 ft | 510 kts | 85° |
| 2026-05-05 20:23 | 53.00209 | -29.99398 | 34898 ft | 511 kts | 79° |
| 2026-05-05 20:23 | 53.06662 | -29.53419 | 34897 ft | 511 kts | 78° |
| 2026-05-05 20:24 | 53.13056 | -29.07243 | 34897 ft | 511 kts | 78° |
| 2026-05-05 20:24 | 53.19266 | -28.60963 | 34897 ft | 511 kts | 78° |
| 2026-05-05 20:25 | 53.25293 | -28.14576 | 34897 ft | 511 kts | 79° |
| 2026-05-05 20:25 | 53.31138 | -27.68073 | 34897 ft | 511 kts | 79° |
| 2026-05-05 20:26 | 53.36801 | -27.21454 | 34897 ft | 511 kts | 80° |
| 2026-05-05 20:26 | 53.42278 | -26.74743 | 34897 ft | 511 kts | 80° |
| 2026-05-05 20:27 | 53.47576 | -26.27882 | 34897 ft | 511 kts | 81° |
| 2026-05-05 20:27 | 53.52655 | -25.81234 | 34897 ft | 511 kts | 81° |
| 2026-05-05 20:28 | 53.57614 | -25.33873 | 34897 ft | 511 kts | 81° |
| 2026-05-05 20:28 | 53.62319 | -24.87080 | 34897 ft | 511 kts | 82° |
| 2026-05-05 20:29 | 53.66877 | -24.39798 | 34897 ft | 511 kts | 82° |
| 2026-05-05 20:29 | 53.71247 | -23.92429 | 34897 ft | 510 kts | 82° |
| 2026-05-05 20:30 | 53.75434 | -23.44925 | 34897 ft | 510 kts | 83° |
| 2026-05-05 20:30 | 53.79370 | -22.98094 | 34897 ft | 510 kts | 83° |
| 2026-05-05 20:31 | 53.83181 | -22.50426 | 34897 ft | 510 kts | 84° |
| 2026-05-05 20:31 | 53.86798 | -22.02750 | 34897 ft | 510 kts | 84° |
| 2026-05-05 20:32 | 53.90225 | -21.54990 | 34897 ft | 510 kts | 84° |
| 2026-05-05 20:32 | 53.93461 | -21.07181 | 34897 ft | 510 kts | 85° |
| 2026-05-05 20:33 | 53.96509 | -20.59273 | 34897 ft | 510 kts | 85° |
| 2026-05-05 20:33 | 53.99344 | -20.11670 | 34897 ft | 510 kts | 85° |
| 2026-05-05 20:34 | 54.00723 | -19.63599 | 34897 ft | 509 kts | 90° |
| 2026-05-05 20:34 | 54.01467 | -19.15436 | 34897 ft | 509 kts | 90° |
| 2026-05-05 20:35 | 54.02032 | -18.67283 | 34897 ft | 509 kts | 90° |
| 2026-05-05 20:35 | 54.02404 | -18.19184 | 34897 ft | 509 kts | 91° |
| 2026-05-05 20:36 | 54.02584 | -17.70991 | 34897 ft | 509 kts | 91° |
| 2026-05-05 20:36 | 54.02572 | -17.22854 | 34897 ft | 509 kts | 91° |
| 2026-05-05 20:37 | 54.02367 | -16.74735 | 34897 ft | 509 kts | 92° |
| 2026-05-05 20:37 | 54.01971 | -16.26673 | 34897 ft | 509 kts | 92° |
| 2026-05-05 20:38 | 54.01382 | -15.78523 | 34897 ft | 508 kts | 92° |
| 2026-05-05 20:38 | 54.00602 | -15.30445 | 34897 ft | 508 kts | 93° |
| 2026-05-05 20:39 | 53.99977 | -14.82418 | 34897 ft | 509 kts | 90° |
| 2026-05-05 20:39 | 54.00104 | -14.34360 | 34897 ft | 509 kts | 91° |
| 2026-05-05 20:40 | 53.97383 | -13.87178 | 34896 ft | 505 kts | 110° |
| 2026-05-05 20:40 | 53.87844 | -13.42474 | 34897 ft | 505 kts | 111° |
| 2026-05-05 20:41 | 53.78166 | -12.97797 | 34897 ft | 505 kts | 111° |
| 2026-05-05 20:41 | 53.68342 | -12.53433 | 34897 ft | 504 kts | 112° |
| 2026-05-05 20:42 | 53.58339 | -12.09202 | 34897 ft | 504 kts | 112° |
| 2026-05-05 20:42 | 53.48189 | -11.65249 | 34897 ft | 504 kts | 112° |
| 2026-05-05 20:43 | 53.37872 | -11.21477 | 34897 ft | 504 kts | 113° |
| 2026-05-05 20:43 | 53.27400 | -10.77940 | 34897 ft | 504 kts | 113° |
| 2026-05-05 20:44 | 53.16765 | -10.34597 | 34897 ft | 504 kts | 114° |
| 2026-05-05 20:44 | 53.05995 | -9.91553 | 34897 ft | 504 kts | 114° |
| 2026-05-05 20:45 | 52.89596 | -9.27567 | 34897 ft | 504 kts | 115° |
| 2026-05-05 20:45 | 52.78429 | -8.85012 | 34897 ft | 504 kts | 115° |
| 2026-05-05 20:46 | 52.67114 | -8.42688 | 34897 ft | 504 kts | 115° |
| 2026-05-05 20:46 | 52.55847 | -8.00462 | 34897 ft | 504 kts | 113° |
| 2026-05-05 20:47 | 52.45381 | -7.57728 | 34896 ft | 504 kts | 114° |
| 2026-05-05 20:47 | 52.34657 | -7.15297 | 34897 ft | 504 kts | 114° |
| 2026-05-05 20:48 | 52.23774 | -6.73029 | 34897 ft | 504 kts | 114° |
| 2026-05-05 20:48 | 52.12757 | -6.31030 | 34897 ft | 504 kts | 115° |
| 2026-05-05 20:49 | 52.02875 | -5.88446 | 34897 ft | 506 kts | 107° |
| 2026-05-05 20:49 | 51.95275 | -5.44487 | 34897 ft | 505 kts | 107° |
| 2026-05-05 20:50 | 51.88794 | -5.00212 | 34897 ft | 507 kts | 102° |
| 2026-05-05 20:50 | 51.83488 | -4.55744 | 34897 ft | 506 kts | 102° |
| 2026-05-05 20:51 | 51.77967 | -4.11072 | 34896 ft | 506 kts | 103° |
| 2026-05-05 20:51 | 51.72277 | -3.66539 | 34897 ft | 506 kts | 103° |
| 2026-05-05 20:52 | 51.68912 | -3.21419 | 34897 ft | 508 kts | 97° |
| 2026-05-05 20:52 | 51.66085 | -2.75839 | 34897 ft | 508 kts | 97° |
| 2026-05-05 20:53 | 51.63116 | -2.30896 | 34897 ft | 507 kts | 97° |
| 2026-05-05 20:53 | 51.59956 | -1.85840 | 34897 ft | 507 kts | 98° |
| 2026-05-05 20:54 | 51.53504 | -1.41962 | 34897 ft | 505 kts | 110° |
| 2026-05-05 20:54 | 51.46249 | -0.98409 | 34897 ft | 506 kts | 102° |
| 2026-05-05 20:55 | 51.40653 | -0.54131 | 34897 ft | 506 kts | 103° |
| 2026-05-05 20:55 | 51.34904 | -0.10044 | 34897 ft | 506 kts | 103° |
| 2026-05-05 20:56 | 51.30180 | 0.34060 | 34896 ft | 507 kts | 99° |
| 2026-05-05 20:56 | 51.25845 | 0.78678 | 34897 ft | 507 kts | 100° |
| 2026-05-05 20:57 | 51.21327 | 1.23084 | 34897 ft | 507 kts | 101° |
| 2026-05-05 20:57 | 51.16636 | 1.67453 | 34897 ft | 507 kts | 101° |
| 2026-05-05 20:58 | 51.12440 | 2.11811 | 34897 ft | 508 kts | 96° |
| 2026-05-05 20:58 | 51.09968 | 2.56718 | 34897 ft | 508 kts | 96° |
| 2026-05-05 20:59 | 51.04135 | 3.00459 | 34897 ft | 506 kts | 105° |
| 2026-05-05 20:59 | 50.97390 | 3.43844 | 34897 ft | 506 kts | 105° |
| 2026-05-05 21:00 | 50.90506 | 3.87021 | 34897 ft | 506 kts | 105° |
| 2026-05-05 21:00 | 50.81573 | 4.29219 | 34897 ft | 504 kts | 112° |
| 2026-05-05 21:01 | 50.71494 | 4.70230 | 34897 ft | 504 kts | 112° |
| 2026-05-05 21:01 | 50.61940 | 5.11818 | 34897 ft | 505 kts | 108° |
| 2026-05-05 21:02 | 50.53292 | 5.53765 | 34898 ft | 505 kts | 110° |
| 2026-05-05 21:02 | 50.45321 | 5.96222 | 34897 ft | 505 kts | 107° |
| 2026-05-05 21:03 | 50.37471 | 6.38586 | 34897 ft | 505 kts | 108° |
| 2026-05-05 21:03 | 50.29485 | 6.80695 | 34897 ft | 505 kts | 108° |
| 2026-05-05 21:04 | 50.21325 | 7.22772 | 34897 ft | 505 kts | 108° |
| 2026-05-05 21:04 | 50.13021 | 7.64671 | 34896 ft | 505 kts | 109° |
| 2026-05-05 21:05 | 50.06000 | 7.99402 | 34896 ft | 505 kts | 109° |
| 2026-05-05 21:05 | 49.97429 | 8.40994 | 34897 ft | 505 kts | 109° |
| 2026-05-05 21:06 | 49.91964 | 8.60966 | 34897 ft | 503 kts | 120° |
| 2026-05-05 21:06 | 49.85000 | 8.79826 | 34897 ft | 503 kts | 121° |
| 2026-05-05 21:06 | 49.70999 | 9.17203 | 34897 ft | 503 kts | 121° |
| 2026-05-05 21:07 | 49.55424 | 9.52813 | 34896 ft | 500 kts | 132° |
| 2026-05-05 21:07 | 49.37002 | 9.84834 | 34897 ft | 500 kts | 133° |
| 2026-05-05 21:08 | 49.18466 | 10.16678 | 34896 ft | 500 kts | 133° |
| 2026-05-05 21:08 | 48.99455 | 10.47669 | 34897 ft | 500 kts | 135° |
| 2026-05-05 21:09 | 48.80204 | 10.78211 | 34897 ft | 500 kts | 134° |
| 2026-05-05 21:09 | 48.75117 | 10.86235 | 34892 ft | 500 kts | 135° |
| 2026-05-05 21:10 | 48.72724 | 10.89969 | 34660 ft | 499 kts | 135° |
| 2026-05-05 21:10 | 48.70297 | 10.93749 | 34413 ft | 500 kts | 135° |
| 2026-05-05 21:10 | 48.67876 | 10.97523 | 34159 ft | 501 kts | 135° |
| 2026-05-05 21:10 | 48.65446 | 11.01304 | 33914 ft | 501 kts | 135° |
| 2026-05-05 21:11 | 48.63018 | 11.05073 | 33601 ft | 497 kts | 135° |
| 2026-05-05 21:11 | 48.60607 | 11.08811 | 32883 ft | 497 kts | 135° |
| 2026-05-05 21:11 | 48.58100 | 11.12397 | 32051 ft | 498 kts | 141° |
| 2026-05-05 21:11 | 48.55328 | 11.15523 | 31217 ft | 498 kts | 146° |
| 2026-05-05 21:12 | 48.52488 | 11.18489 | 30142 ft | 493 kts | 146° |
| 2026-05-05 21:12 | 48.49802 | 11.21705 | 28647 ft | 494 kts | 140° |
| 2026-05-05 21:12 | 48.47260 | 11.25166 | 27333 ft | 490 kts | 137° |
| 2026-05-05 21:12 | 48.45002 | 11.28963 | 26146 ft | 485 kts | 128° |
| 2026-05-05 21:13 | 48.43191 | 11.33200 | 24984 ft | 478 kts | 119° |
| 2026-05-05 21:13 | 48.41881 | 11.37774 | 23842 ft | 472 kts | 110° |
| 2026-05-05 21:13 | 48.41092 | 11.42528 | 22710 ft | 466 kts | 101° |
| 2026-05-05 21:13 | 48.40817 | 11.47337 | 21570 ft | 460 kts | 91° |
| 2026-05-05 21:14 | 48.41043 | 11.52107 | 20423 ft | 453 kts | 82° |
| 2026-05-05 21:14 | 48.41745 | 11.56701 | 19294 ft | 447 kts | 73° |
| 2026-05-05 21:14 | 48.42787 | 11.61063 | 18159 ft | 440 kts | 71° |
| 2026-05-05 21:14 | 48.43705 | 11.65415 | 17004 ft | 432 kts | 77° |
| 2026-05-05 21:15 | 48.44250 | 11.69831 | 15862 ft | 424 kts | 83° |
| 2026-05-05 21:15 | 48.44617 | 11.74193 | 14742 ft | 417 kts | 84° |
| 2026-05-05 21:15 | 48.44951 | 11.78498 | 13633 ft | 410 kts | 85° |
| 2026-05-05 21:15 | 48.45276 | 11.82740 | 12504 ft | 404 kts | 85° |
| 2026-05-05 21:16 | 48.45593 | 11.86904 | 11377 ft | 397 kts | 85° |
| 2026-05-05 21:16 | 48.45899 | 11.90950 | 10562 ft | 384 kts | 85° |
| 2026-05-05 21:16 | 48.46193 | 11.94822 | 10144 ft | 361 kts | 85° |
| 2026-05-05 21:16 | 48.46468 | 11.98465 | 9769 ft | 339 kts | 85° |
| 2026-05-05 21:17 | 48.46725 | 12.01894 | 9431 ft | 319 kts | 85° |
| 2026-05-05 21:17 | 48.46966 | 12.05127 | 9031 ft | 303 kts | 85° |
| 2026-05-05 21:17 | 48.47197 | 12.08243 | 8418 ft | 297 kts | 85° |
| 2026-05-05 21:17 | 48.47423 | 12.11317 | 7742 ft | 293 kts | 85° |
| 2026-05-05 21:18 | 48.47645 | 12.14349 | 7070 ft | 290 kts | 86° |
| 2026-05-05 21:18 | 48.47865 | 12.17354 | 6392 ft | 286 kts | 86° |
| 2026-05-05 21:18 | 48.48082 | 12.20320 | 5712 ft | 284 kts | 86° |
| 2026-05-05 21:18 | 48.48296 | 12.23266 | 5027 ft | 281 kts | 86° |
| 2026-05-05 21:19 | 48.48509 | 12.26206 | 4544 ft | 282 kts | 86° |
| 2026-05-05 21:19 | 48.48720 | 12.29126 | 4188 ft | 279 kts | 86° |
| 2026-05-05 21:19 | 48.48929 | 12.32022 | 3808 ft | 277 kts | 86° |
| 2026-05-05 21:19 | 48.49135 | 12.34895 | 3410 ft | 275 kts | 86° |
| 2026-05-05 21:20 | 48.49321 | 12.37750 | 3009 ft | 273 kts | 89° |
| 2026-05-05 21:20 | 48.49099 | 12.40516 | 2551 ft | 267 kts | 112° |
| 2026-05-05 21:20 | 48.48123 | 12.42817 | 2189 ft | 258 kts | 139° |
| 2026-05-05 21:20 | 48.46673 | 12.44143 | 2068 ft | 251 kts | 163° |
| 2026-05-05 21:21 | 48.44990 | 12.44453 | 2066 ft | 251 kts | 187° |
| 2026-05-05 21:21 | 48.43368 | 12.43618 | 2508 ft | 243 kts | 211° |
| 2026-05-05 21:21 | 48.42120 | 12.41920 | 2923 ft | 247 kts | 233° |
| 2026-05-05 21:21 | 48.41387 | 12.39517 | 3051 ft | 261 kts | 252° |
| 2026-05-05 21:22 | 48.40968 | 12.36829 | 3058 ft | 266 kts | 256° |
| 2026-05-05 21:22 | 48.40586 | 12.34115 | 3056 ft | 260 kts | 256° |
| 2026-05-05 21:22 | 48.40229 | 12.31617 | 3065 ft | 229 kts | 255° |
| 2026-05-05 21:22 | 48.39908 | 12.29423 | 3084 ft | 200 kts | 255° |
| 2026-05-05 21:23 | 48.39590 | 12.27543 | 3087 ft | 170 kts | 246° |
| 2026-05-05 21:23 | 48.39280 | 12.25888 | 2832 ft | 161 kts | 255° |
| 2026-05-05 21:23 | 48.39121 | 12.24257 | 2601 ft | 152 kts | 260° |
| 2026-05-05 21:23 | 48.39015 | 12.22756 | 2426 ft | 136 kts | 259° |
| 2026-05-05 21:24 | 48.38838 | 12.21387 | 2505 ft | 137 kts | 264° |
| 2026-05-05 21:24 | 48.38701 | 12.19931 | 2758 ft | 145 kts | 253° |
| 2026-05-05 21:24 | 48.38477 | 12.18420 | 2982 ft | 151 kts | 253° |
| 2026-05-05 21:24 | 48.38202 | 12.16898 | 3039 ft | 151 kts | 245° |
| 2026-05-05 21:25 | 48.37740 | 12.15494 | 3061 ft | 150 kts | 238° |
| 2026-05-05 21:25 | 48.37303 | 12.14064 | 3063 ft | 152 kts | 248° |
| 2026-05-05 21:25 | 48.37040 | 12.12528 | 3059 ft | 152 kts | 255° |
| 2026-05-05 21:25 | 48.36871 | 12.10956 | 3061 ft | 152 kts | 258° |
| 2026-05-05 21:26 | 48.36729 | 12.09379 | 3064 ft | 153 kts | 259° |
| 2026-05-05 21:26 | 48.36606 | 12.07788 | 3063 ft | 153 kts | 260° |
| 2026-05-05 21:26 | 48.36486 | 12.06204 | 3057 ft | 152 kts | 259° |
| 2026-05-05 21:26 | 48.36355 | 12.04620 | 3063 ft | 153 kts | 259° |
| 2026-05-05 21:27 | 48.36223 | 12.03056 | 3064 ft | 153 kts | 259° |
| 2026-05-05 21:27 | 48.36093 | 12.01473 | 3057 ft | 152 kts | 259° |
| 2026-05-05 21:27 | 48.35965 | 11.99890 | 3059 ft | 152 kts | 259° |
| 2026-05-05 21:27 | 48.35842 | 11.98310 | 3062 ft | 152 kts | 259° |
| 2026-05-05 21:28 | 48.35727 | 11.96793 | 3062 ft | 152 kts | 259° |
| 2026-05-05 21:28 | 48.35609 | 11.95229 | 3063 ft | 152 kts | 259° |
| 2026-05-05 21:28 | 48.35492 | 11.93685 | 3062 ft | 152 kts | 259° |
| 2026-05-05 21:28 | 48.35370 | 11.92097 | 3019 ft | 153 kts | 259° |
| 2026-05-05 21:29 | 48.35249 | 11.90516 | 2823 ft | 153 kts | 259° |
| 2026-05-05 21:29 | 48.35128 | 11.88928 | 2617 ft | 152 kts | 259° |
| 2026-05-05 21:29 | 48.35007 | 11.87361 | 2411 ft | 151 kts | 259° |
| 2026-05-05 21:29 | 48.34887 | 11.85797 | 2210 ft | 150 kts | 259° |
| 2026-05-05 21:30 | 48.34768 | 11.84242 | 2011 ft | 149 kts | 259° |
| 2026-05-05 21:30 | 48.34649 | 11.82692 | 1814 ft | 150 kts | 260° |
| 2026-05-05 21:30 | 48.34530 | 11.81138 | 1618 ft | 150 kts | 261° |
| 2026-05-05 21:30 | 48.34411 | 11.79597 | 1475 ft | 145 kts | 266° |
| 2026-05-05 21:31 | 48.34310 | 11.78273 | 1473 ft | 95 kts | 263° |
| 2026-05-05 21:31 | 48.34267 | 11.77738 | 1464 ft | 8 kts | 263° |
| 2026-05-05 21:31 | 48.34264 | 11.77699 | 1463 ft | 12 kts | 264° |
| 2026-05-05 21:31 | 48.34256 | 11.77563 | 1470 ft | 13 kts | 266° |
| 2026-05-05 21:32 | 48.34251 | 11.77412 | 1466 ft | 16 kts | 268° |
| 2026-05-05 21:32 | 48.34249 | 11.77242 | 1465 ft | 16 kts | 272° |
| 2026-05-05 21:32 | 48.34283 | 11.77113 | 1462 ft | 11 kts | 311° |
| 2026-05-05 21:32 | 48.34333 | 11.77008 | 1463 ft | 18 kts | 299° |
| 2026-05-05 21:33 | 48.34388 | 11.76830 | 1470 ft | 19 kts | 294° |
| 2026-05-05 21:33 | 48.34453 | 11.76707 | 1464 ft | 8 kts | 343° |
| 2026-05-05 21:33 | 48.34516 | 11.76690 | 1470 ft | 11 kts | 355° |
| 2026-05-05 21:33 | 48.34546 | 11.76706 | 1470 ft | 3 kts | 46° |
| 2026-05-05 21:34 | 48.34557 | 11.76727 | 1461 ft | 3 kts | 52° |